Time;durP1;ratioP1;P1;durP2;ratioP2;P2;SDS_P1;SDS_P2;PMS_P1;PMS_P2;Temp;Humidity;BMP_temperature;BMP_pressure;BME280_temperature;BME280_humidity;BME280_pressure;Samples;Min_cycle;Max_cycle;Signal;HPM_P1;HPM_P2
2023/02/15 00:00:36;;;;;;;56.77;43.53;;;8.30;12.00;;;;;;5051495;28;20174;-89
2023/02/15 00:03:03;;;;;;;59.87;43.53;;;8.10;12.10;;;;;;5047019;28;20178;-86
2023/02/15 00:05:30;;;;;;;58.17;44.33;;;8.10;11.60;;;;;;5053282;28;20185;-89
2023/02/15 00:07:56;;;;;;;58.17;42.93;;;8.20;10.10;;;;;;5055464;28;20193;-84
2023/02/15 00:10:23;;;;;;;57.87;43.60;;;8.10;9.70;;;;;;5053945;28;20173;-84
2023/02/15 00:12:48;;;;;;;59.57;44.27;;;8.10;9.60;;;;;;5055250;28;20200;-81
2023/02/15 00:15:14;;;;;;;58.03;42.63;;;8.10;9.50;;;;;;5047365;28;20169;-88
2023/02/15 00:17:40;;;;;;;56.77;41.50;;;8.10;8.50;;;;;;5046021;28;20209;-89
2023/02/15 00:20:06;;;;;;;55.30;41.67;;;8.00;7.00;;;;;;5032782;28;20237;-89
2023/02/15 00:22:32;;;;;;;57.07;41.03;;;7.70;9.10;;;;;;5040831;28;20272;-92
2023/02/15 00:24:59;;;;;;;58.60;42.17;;;7.60;12.40;;;;;;5026051;28;20201;-87
2023/02/15 00:27:25;;;;;;;53.40;40.20;;;7.50;15.00;;;;;;5025188;28;20170;-90
2023/02/15 00:29:50;;;;;;;56.27;40.70;;;7.50;16.30;;;;;;5024346;28;20217;-91
2023/02/15 00:32:16;;;;;;;56.30;42.13;;;7.70;15.30;;;;;;5027277;28;20234;-89
2023/02/15 00:34:43;;;;;;;56.67;40.87;;;7.70;14.80;;;;;;5028973;28;20233;-80
2023/02/15 00:37:08;;;;;;;55.40;42.13;;;7.70;13.00;;;;;;5039723;28;20194;-79
2023/02/15 00:39:34;;;;;;;56.00;41.80;;;7.80;10.60;;;;;;5039009;28;20177;-79
2023/02/15 00:42:00;;;;;;;58.20;41.93;;;7.80;8.80;;;;;;5037071;28;20623;-88
2023/02/15 00:44:26;;;;;;;53.47;40.63;;;7.90;7.90;;;;;;5028304;28;20179;-86
2023/02/15 00:46:52;;;;;;;56.87;42.37;;;8.00;6.70;;;;;;5039309;28;20178;-79
2023/02/15 00:49:18;;;;;;;59.50;41.80;;;8.00;6.30;;;;;;5039812;28;20159;-82
2023/02/15 00:51:43;;;;;;;63.83;42.83;;;7.90;4.40;;;;;;5039472;28;20182;-82
2023/02/15 00:54:09;;;;;;;57.73;42.20;;;7.80;4.50;;;;;;5038619;28;20178;-82
2023/02/15 00:56:37;;;;;;;55.97;41.63;;;7.70;4.80;;;;;;5039503;28;20222;-80
2023/02/15 00:59:03;;;;;;;59.27;42.23;;;7.70;4.90;;;;;;5039742;28;20241;-79
2023/02/15 01:01:29;;;;;;;57.83;42.10;;;7.80;4.30;;;;;;5038578;28;20182;-79
2023/02/15 01:03:57;;;;;;;55.97;41.73;;;7.80;1.00;;;;;;5043381;28;20176;-79
2023/02/15 01:06:23;;;;;;;57.30;42.27;;;7.70;1.00;;;;;;5055916;28;20181;-78
2023/02/15 01:08:52;;;;;;;58.90;43.83;;;7.60;1.00;;;;;;5057938;28;20181;-80
2023/02/15 01:11:23;;;;;;;56.97;42.63;;;7.70;1.00;;;;;;5055437;28;20177;-87
2023/02/15 01:13:56;;;;;;;66.03;43.80;;;7.70;1.00;;;;;;5055973;28;20193;-87
2023/02/15 01:16:26;;;;;;;59.17;42.57;;;7.60;1.00;;;;;;5056583;28;20185;-89
2023/02/15 01:18:54;;;;;;;56.77;42.47;;;7.60;1.00;;;;;;5069806;28;20283;-83
2023/02/15 01:21:22;;;;;;;63.43;44.87;;;7.60;1.00;;;;;;5047481;28;20184;-90
2023/02/15 01:23:50;;;;;;;61.40;44.73;;;7.60;1.50;;;;;;5045298;28;20170;-89
2023/02/15 01:26:16;;;;;;;59.73;43.57;;;7.60;2.30;;;;;;5041590;28;20525;-92
2023/02/15 01:28:42;;;;;;;60.03;43.00;;;7.60;3.00;;;;;;5037910;28;20185;-92
2023/02/15 01:31:10;;;;;;;58.73;42.83;;;7.50;4.70;;;;;;5056519;28;20160;-91
2023/02/15 01:33:37;;;;;;;57.57;42.43;;;7.50;7.60;;;;;;5055585;28;20177;-81
2023/02/15 01:36:03;;;;;;;56.33;42.40;;;7.50;8.90;;;;;;5045297;28;20170;-81
2023/02/15 01:38:30;;;;;;;57.77;42.70;;;7.50;9.40;;;;;;5036842;28;20221;-79
2023/02/15 01:41:19;;;;;;;57.00;42.87;;;7.60;9.30;;;;;;5035861;28;20163;-79
2023/02/15 01:43:45;;;;;;;61.67;42.90;;;7.50;8.30;;;;;;5027074;28;20498;-86
2023/02/15 01:46:12;;;;;;;55.43;41.10;;;7.50;8.40;;;;;;5032953;28;20243;-80
2023/02/15 01:48:47;;;;;;;58.40;41.67;;;7.50;8.30;;;;;;5030991;28;20213;-90
2023/02/15 01:51:18;;;;;;;57.00;41.33;;;7.60;6.40;;;;;;5038160;28;20247;-80
2023/02/15 01:53:50;;;;;;;56.67;41.97;;;7.50;5.20;;;;;;5038180;28;20174;-80
2023/02/15 01:56:26;;;;;;;61.87;41.53;;;7.50;6.20;;;;;;5035178;28;20177;-88
2023/02/15 01:58:57;;;;;;;56.37;41.53;;;7.50;5.40;;;;;;5017315;28;20287;-90
2023/02/15 02:01:24;;;;;;;54.10;42.37;;;7.50;6.10;;;;;;5016892;28;20178;-91
2023/02/15 02:03:56;;;;;;;56.07;39.97;;;7.50;6.70;;;;;;5016676;28;20179;-91
2023/02/15 02:06:23;;;;;;;55.57;41.47;;;7.50;5.60;;;;;;5022878;28;20185;-87
2023/02/15 02:08:49;;;;;;;57.77;41.10;;;7.50;4.70;;;;;;5023320;28;20176;-90
2023/02/15 02:11:15;;;;;;;55.60;41.13;;;7.50;5.10;;;;;;5018898;28;20257;-89
2023/02/15 02:13:42;;;;;;;57.70;42.70;;;7.60;3.50;;;;;;5018274;28;20170;-91
2023/02/15 02:16:26;;;;;;;56.90;41.63;;;7.60;2.20;;;;;;5019242;28;20261;-92
2023/02/15 02:19:19;;;;;;;54.17;41.57;;;7.60;2.10;;;;;;5017940;28;20221;-91
2023/02/15 02:22:02;;;;;;;54.50;40.47;;;7.60;1.60;;;;;;5016310;28;20359;-90
2023/02/15 02:24:59;;;;;;;58.70;42.07;;;7.40;1.00;;;;;;5017055;28;20314;-92
2023/02/15 02:27:24;;;;;;;60.87;42.10;;;7.30;3.20;;;;;;5024008;28;20724;-83
2023/02/15 02:30:20;;;;;;;62.23;42.13;;;7.30;4.80;;;;;;5027571;28;20170;-86
2023/02/15 02:32:59;;;;;;;57.27;41.20;;;7.40;4.50;;;;;;5027842;28;20237;-86
2023/02/15 02:35:41;;;;;;;57.97;42.10;;;7.30;4.20;;;;;;5024409;28;20174;-90
2023/02/15 02:38:35;;;;;;;58.90;42.33;;;7.30;7.50;;;;;;5024348;28;20201;-90
2023/02/15 02:41:01;;;;;;;61.30;44.77;;;7.40;6.30;;;;;;5018991;28;20189;-91
2023/02/15 02:43:40;;;;;;;58.50;42.23;;;7.30;7.00;;;;;;5015542;28;20170;-91
2023/02/15 02:46:25;;;;;;;59.57;41.93;;;7.40;9.20;;;;;;5015812;28;20253;-88
2023/02/15 02:48:52;;;;;;;58.10;41.50;;;7.50;7.70;;;;;;5016438;28;20185;-90
2023/02/15 02:51:21;;;;;;;61.20;45.17;;;7.50;7.00;;;;;;5017130;28;20613;-89
2023/02/15 02:53:52;;;;;;;55.63;42.60;;;7.50;6.80;;;;;;5018452;28;20170;-89
2023/02/15 02:56:38;;;;;;;54.20;40.93;;;7.60;6.50;;;;;;5017839;28;20566;-90
2023/02/15 02:59:09;;;;;;;54.30;41.50;;;7.50;5.50;;;;;;5016259;28;20210;-91
2023/02/15 03:01:48;;;;;;;55.57;41.97;;;7.60;3.20;;;;;;5019533;28;20193;-89
2023/02/15 03:04:28;;;;;;;56.70;41.53;;;7.50;1.20;;;;;;5033415;28;20170;-91
2023/02/15 03:07:04;;;;;;;59.20;41.27;;;7.50;1.60;;;;;;5017610;28;20176;-84
2023/02/15 03:09:42;;;;;;;57.97;41.40;;;7.50;1.40;;;;;;5029276;28;20159;-89
2023/02/15 03:12:14;;;;;;;58.87;40.60;;;7.40;1.70;;;;;;5019604;28;20174;-89
2023/02/15 03:14:43;;;;;;;54.00;38.97;;;7.30;3.90;;;;;;5022412;28;20162;-86
2023/02/15 03:17:11;;;;;;;57.83;41.53;;;7.30;5.60;;;;;;5033358;28;20185;-83
2023/02/15 03:19:38;;;;;;;56.13;42.20;;;7.20;6.80;;;;;;5021854;28;20194;-89
2023/02/15 03:22:38;;;;;;;54.93;40.87;;;7.20;7.50;;;;;;5019807;28;20166;-85
2023/02/15 03:25:17;;;;;;;57.83;42.67;;;7.20;5.30;;;;;;5017049;28;20178;-86
2023/02/15 03:27:46;;;;;;;57.63;42.70;;;7.40;1.00;;;;;;5028317;28;20159;-79
2023/02/15 03:30:14;;;;;;;61.73;42.83;;;7.40;1.00;;;;;;5037956;28;20163;-79
2023/02/15 03:32:43;;;;;;;62.70;43.03;;;7.30;1.00;;;;;;5035118;28;20163;-81
2023/02/15 03:35:09;;;;;;;53.17;40.13;;;7.20;1.00;;;;;;5034702;28;20170;-87
2023/02/15 03:37:47;;;;;;;57.73;41.17;;;7.10;1.00;;;;;;5040342;28;20231;-88
2023/02/15 03:43:22;;;;;;;56.30;39.30;;;6.90;12.70;;;;;;5050055;28;20197;-85
2023/02/15 03:45:54;;;;;;;57.13;41.03;;;6.90;14.50;;;;;;5041585;28;20162;-84
2023/02/15 03:48:52;;;;;;;53.73;39.57;;;6.90;15.10;;;;;;5059755;28;20158;-80
2023/02/15 03:51:34;;;;;;;57.13;40.87;;;6.80;15.60;;;;;;5060570;28;20177;-81
2023/02/15 03:54:12;;;;;;;55.37;40.77;;;6.90;16.10;;;;;;5057557;28;20229;-90
2023/02/15 04:01:56;;;;;;;54.30;39.60;;;6.90;15.50;;;;;;5058356;28;20197;-82
2023/02/15 04:02:27;;;;;;;55.07;39.50;;;6.70;14.90;;;;;;5050036;28;20241;-85
2023/02/15 04:04:54;;;;;;;58.30;40.00;;;6.70;16.40;;;;;;5056468;28;20173;-80
2023/02/15 04:07:19;;;;;;;55.47;39.67;;;6.70;16.40;;;;;;5037655;28;20170;-80
2023/02/15 04:12:30;;;;;;;55.40;38.33;;;6.70;15.60;;;;;;5025261;28;20168;-80
2023/02/15 04:17:43;;;;;;;57.37;38.63;;;6.80;6.70;;;;;;5020939;28;20205;-87
2023/02/15 04:25:38;;;;;;;52.20;38.17;;;6.20;20.70;;;;;;5037835;28;20216;-83
2023/02/15 04:28:09;;;;;;;51.83;37.17;;;6.10;22.70;;;;;;5025396;28;20202;-89
2023/02/15 04:30:35;;;;;;;53.13;36.03;;;6.10;25.70;;;;;;5021791;28;20175;-90
2023/02/15 04:33:02;;;;;;;57.50;38.83;;;6.20;25.40;;;;;;5022054;28;20174;-89
2023/02/15 04:35:28;;;;;;;48.33;36.00;;;6.20;23.40;;;;;;5028749;28;20185;-87
2023/02/15 04:37:55;;;;;;;52.50;37.80;;;6.20;24.10;;;;;;5041050;28;20212;-86
2023/02/15 04:40:21;;;;;;;50.30;37.03;;;6.20;24.10;;;;;;5041597;28;20688;-89
2023/02/15 04:42:50;;;;;;;52.13;37.03;;;6.20;23.30;;;;;;5037999;28;20174;-88
2023/02/15 04:45:16;;;;;;;51.97;37.60;;;6.40;22.60;;;;;;5042377;28;20162;-90
2023/02/15 04:47:42;;;;;;;48.97;37.23;;;6.40;20.90;;;;;;5040292;28;20256;-90
2023/02/15 04:50:09;;;;;;;52.13;37.37;;;6.10;19.60;;;;;;5039464;28;20263;-84
2023/02/15 04:52:35;;;;;;;49.30;36.27;;;6.10;21.60;;;;;;5038946;28;20261;-87
2023/02/15 04:55:00;;;;;;;51.87;37.17;;;6.10;21.60;;;;;;5043418;28;20202;-91
2023/02/15 04:57:26;;;;;;;47.27;36.60;;;6.20;22.20;;;;;;5057112;28;20185;-80
2023/02/15 04:59:52;;;;;;;52.57;37.50;;;6.20;19.90;;;;;;5051698;28;20227;-83
2023/02/15 05:02:17;;;;;;;50.90;37.43;;;6.30;20.00;;;;;;5044471;28;20555;-79
2023/02/15 05:04:43;;;;;;;49.07;35.90;;;6.30;17.90;;;;;;5055193;28;20181;-81
2023/02/15 05:07:08;;;;;;;54.10;37.80;;;6.20;17.70;;;;;;5047272;28;20200;-90
2023/02/15 05:09:34;;;;;;;50.70;36.63;;;6.20;17.10;;;;;;5041510;28;20634;-90
2023/02/15 05:12:00;;;;;;;48.93;34.93;;;6.30;16.10;;;;;;5039093;28;20252;-85
2023/02/15 05:14:26;;;;;;;50.20;36.17;;;6.20;14.80;;;;;;5040213;28;20197;-87
2023/02/15 05:16:53;;;;;;;45.00;33.60;;;6.30;10.00;;;;;;5041006;28;20181;-83
2023/02/15 05:19:19;;;;;;;51.60;34.97;;;6.10;9.40;;;;;;5042065;28;20218;-85
2023/02/15 05:21:45;;;;;;;45.33;34.57;;;6.00;11.10;;;;;;5041404;28;20177;-84
2023/02/15 05:29:39;;;;;;;48.63;35.97;;;6.10;9.80;;;;;;5038878;28;20168;-88
2023/02/15 05:32:05;;;;;;;48.07;34.37;;;6.20;8.90;;;;;;5040293;28;20173;-88
2023/02/15 05:34:31;;;;;;;46.17;33.50;;;6.10;7.70;;;;;;5039027;28;20219;-88
2023/02/15 05:36:57;;;;;;;49.43;34.07;;;6.10;6.60;;;;;;5045237;28;20178;-80
2023/02/15 05:39:23;;;;;;;45.20;33.77;;;6.00;7.10;;;;;;5043869;28;20213;-83
2023/02/15 05:41:49;;;;;;;44.53;33.13;;;6.00;8.80;;;;;;5046895;28;20157;-82
2023/02/15 05:44:15;;;;;;;44.93;33.43;;;6.10;7.90;;;;;;5044060;28;20577;-89
2023/02/15 05:46:41;;;;;;;49.90;34.17;;;6.10;6.40;;;;;;5044373;28;20184;-80
2023/02/15 05:49:06;;;;;;;47.97;35.10;;;6.10;5.30;;;;;;5054321;28;20165;-83
2023/02/15 05:51:32;;;;;;;46.10;33.00;;;6.00;5.70;;;;;;5045213;28;20194;-89
2023/02/15 05:53:58;;;;;;;45.47;33.50;;;5.90;6.70;;;;;;5044804;28;20182;-82
2023/02/15 05:56:23;;;;;;;41.67;33.10;;;5.80;8.30;;;;;;5053169;28;20272;-81
2023/02/15 05:58:49;;;;;;;46.27;33.10;;;5.90;8.10;;;;;;5058058;28;20210;-80
2023/02/15 06:01:18;;;;;;;46.40;33.37;;;5.80;7.20;;;;;;5056505;28;20169;-86
2023/02/15 06:03:45;;;;;;;43.93;33.10;;;5.70;8.70;;;;;;5055944;28;20513;-80
2023/02/15 06:06:14;;;;;;;44.70;32.77;;;5.60;11.80;;;;;;5052419;28;20162;-90
2023/02/15 06:08:40;;;;;;;46.97;34.23;;;5.60;12.80;;;;;;5056056;28;20656;-89
2023/02/15 06:11:07;;;;;;;48.50;32.90;;;5.50;13.90;;;;;;5054228;28;20606;-83
2023/02/15 06:13:35;;;;;;;44.63;33.73;;;5.50;15.60;;;;;;5054892;28;20165;-80
2023/02/15 06:16:00;;;;;;;44.47;32.23;;;5.30;17.90;;;;;;5055506;28;20193;-78
2023/02/15 06:18:26;;;;;;;48.40;33.70;;;5.30;20.70;;;;;;5049663;28;20213;-83
2023/02/15 06:20:58;;;;;;;44.67;31.80;;;5.50;21.90;;;;;;5041712;28;20170;-86
2023/02/15 06:23:24;;;;;;;48.27;34.20;;;5.40;19.40;;;;;;5038799;28;20181;-86
2023/02/15 06:25:50;;;;;;;48.77;33.37;;;5.50;19.70;;;;;;5037700;28;20188;-85
2023/02/15 06:28:16;;;;;;;43.57;32.63;;;5.50;18.80;;;;;;5061573;28;20209;-79
2023/02/15 06:30:41;;;;;;;48.90;34.50;;;5.60;18.80;;;;;;5056138;28;20185;-79
2023/02/15 06:33:07;;;;;;;45.73;33.40;;;5.60;18.00;;;;;;5058180;28;20192;-80
2023/02/15 06:35:33;;;;;;;47.17;32.97;;;5.60;17.50;;;;;;5050676;28;20186;-79
2023/02/15 06:38:04;;;;;;;44.23;33.07;;;5.60;17.50;;;;;;5036413;28;20198;-87
2023/02/15 06:40:30;;;;;;;45.70;33.87;;;5.60;16.90;;;;;;5047325;28;20181;-79
2023/02/15 06:42:55;;;;;;;44.73;32.67;;;5.60;15.90;;;;;;5055773;28;20162;-79
2023/02/15 06:45:21;;;;;;;49.30;34.03;;;5.60;16.70;;;;;;5056008;28;20253;-80
2023/02/15 06:47:47;;;;;;;51.27;33.57;;;5.70;16.70;;;;;;5055038;28;20169;-78
2023/02/15 06:50:13;;;;;;;44.03;31.77;;;5.70;14.70;;;;;;5046078;28;20178;-79
2023/02/15 06:52:39;;;;;;;49.60;34.50;;;5.80;13.50;;;;;;5040012;28;20169;-79
2023/02/15 06:55:08;;;;;;;48.07;33.87;;;5.80;11.90;;;;;;5056123;28;20177;-81
2023/02/15 06:57:50;;;;;;;48.37;34.10;;;5.80;10.50;;;;;;5044679;28;20217;-80
2023/02/15 07:00:17;;;;;;;47.60;34.40;;;5.90;7.20;;;;;;5032690;28;20253;-80
2023/02/15 07:02:43;;;;;;;45.80;32.80;;;5.80;5.30;;;;;;5031721;28;20670;-87
2023/02/15 07:05:09;;;;;;;43.00;32.50;;;5.70;5.20;;;;;;5039343;28;20173;-86
2023/02/15 07:07:35;;;;;;;50.00;33.67;;;5.70;8.30;;;;;;5029431;28;20196;-79
2023/02/15 07:10:01;;;;;;;48.40;32.53;;;5.70;9.70;;;;;;5042895;28;20336;-87
2023/02/15 07:12:42;;;;;;;46.20;32.70;;;5.80;10.50;;;;;;5045523;28;20177;-89
2023/02/15 07:15:13;;;;;;;49.43;34.00;;;5.80;8.70;;;;;;5044314;28;20177;-85
2023/02/15 07:17:39;;;;;;;43.13;33.47;;;5.90;9.60;;;;;;5041885;28;20201;-90
2023/02/15 07:20:19;;;;;;;48.20;32.80;;;5.80;7.10;;;;;;5041701;28;20192;-87
2023/02/15 07:22:45;;;;;;;51.13;33.17;;;5.90;9.50;;;;;;5045340;28;20204;-85
2023/02/15 07:25:12;;;;;;;47.27;34.00;;;5.90;8.90;;;;;;5058863;28;20185;-87
2023/02/15 07:27:40;;;;;;;48.67;34.70;;;6.00;8.60;;;;;;5044907;28;20170;-85
2023/02/15 07:30:09;;;;;;;47.73;33.63;;;6.10;8.80;;;;;;5024956;28;20181;-80
2023/02/15 07:32:35;;;;;;;48.03;33.87;;;6.10;6.50;;;;;;5037758;28;20174;-82
2023/02/15 07:35:01;;;;;;;49.93;34.80;;;6.20;3.00;;;;;;5033663;28;20186;-83
2023/02/15 07:37:27;;;;;;;55.83;34.87;;;6.00;1.50;;;;;;5034665;28;20208;-80
2023/02/15 07:39:53;;;;;;;50.77;33.77;;;6.00;2.50;;;;;;5037474;28;20192;-86
2023/02/15 07:42:19;;;;;;;49.57;32.90;;;6.20;2.70;;;;;;5039946;28;20185;-85
2023/02/15 07:44:46;;;;;;;47.37;32.17;;;6.10;3.50;;;;;;5035937;28;20518;-85
2023/02/15 07:47:11;;;;;;;48.03;33.13;;;6.10;4.30;;;;;;5034748;28;20256;-86
2023/02/15 07:49:38;;;;;;;50.60;33.67;;;6.20;4.30;;;;;;5038857;28;20240;-83
2023/02/15 07:52:04;;;;;;;46.63;32.23;;;6.30;3.70;;;;;;5040246;28;20174;-84
2023/02/15 07:54:32;;;;;;;52.23;34.37;;;6.40;1.60;;;;;;5040148;28;20241;-82
2023/02/15 07:56:59;;;;;;;49.70;33.57;;;6.50;1.00;;;;;;5040174;28;20182;-83
2023/02/15 07:59:25;;;;;;;54.47;34.60;;;6.50;1.00;;;;;;5024276;28;20293;-85
2023/02/15 08:01:52;;;;;;;49.70;34.33;;;6.60;1.00;;;;;;5039053;28;20189;-84
2023/02/15 08:04:18;;;;;;;49.77;34.43;;;6.60;1.00;;;;;;5041476;28;20170;-85
2023/02/15 08:06:44;;;;;;;48.17;34.27;;;6.60;1.00;;;;;;5034905;28;20232;-79
2023/02/15 08:09:10;;;;;;;48.83;34.00;;;6.70;1.00;;;;;;5045887;28;20173;-82
2023/02/15 08:11:44;;;;;;;52.97;33.30;;;6.60;1.00;;;;;;5046258;28;20194;-84
2023/02/15 08:14:22;;;;;;;52.53;33.07;;;6.60;1.00;;;;;;5052073;28;20177;-87
2023/02/15 08:16:55;;;;;;;56.20;33.40;;;6.60;1.00;;;;;;5027379;28;20205;-86
2023/02/15 08:19:28;;;;;;;53.43;33.83;;;6.70;1.00;;;;;;5026616;28;20281;-87
2023/02/15 08:21:56;;;;;;;46.17;32.70;;;6.70;1.00;;;;;;5024855;28;20166;-87
2023/02/15 08:24:24;;;;;;;48.27;31.60;;;6.60;1.00;;;;;;5021791;28;20178;-88
2023/02/15 08:26:51;;;;;;;47.23;33.73;;;6.80;1.00;;;;;;5028398;28;20201;-86
2023/02/15 08:29:21;;;;;;;51.90;34.27;;;6.80;1.00;;;;;;5041880;28;20289;-83
2023/02/15 08:31:47;;;;;;;54.70;32.87;;;7.00;1.00;;;;;;5045243;28;20646;-87
2023/02/15 08:34:16;;;;;;;48.70;32.40;;;7.20;1.00;;;;;;5061193;28;20209;-86
2023/02/15 08:36:45;;;;;;;51.83;33.47;;;7.20;1.00;;;;;;5054377;28;20190;-87
2023/02/15 08:39:12;;;;;;;41.13;29.70;;;7.20;1.00;;;;;;5032754;28;20273;-82
2023/02/15 08:41:39;;;;;;;48.37;31.27;;;7.30;1.00;;;;;;5038577;28;20225;-84
2023/02/15 08:44:07;;;;;;;44.87;31.03;;;7.40;1.00;;;;;;5008300;28;20182;-86
2023/02/15 08:46:36;;;;;;;43.47;31.43;;;7.40;1.00;;;;;;5023115;28;20601;-87
2023/02/15 08:49:02;;;;;;;46.63;31.23;;;7.60;1.00;;;;;;5046408;28;20173;-86
2023/02/15 08:51:31;;;;;;;47.67;31.37;;;7.70;1.00;;;;;;5052261;28;20190;-80
2023/02/15 08:53:58;;;;;;;46.97;30.93;;;7.90;1.00;;;;;;5046930;28;20209;-80
2023/02/15 08:56:29;;;;;;;48.30;30.87;;;8.10;1.00;;;;;;5028966;28;20189;-89
2023/02/15 08:59:03;;;;;;;50.10;31.23;;;8.00;1.00;;;;;;5022255;28;20609;-88
2023/02/15 09:01:31;;;;;;;47.10;30.30;;;8.00;1.00;;;;;;5036127;28;20177;-82
2023/02/15 09:04:08;;;;;;;50.47;29.97;;;8.20;1.00;;;;;;5019579;28;20658;-81
2023/02/15 09:06:34;;;;;;;45.47;29.90;;;8.20;1.00;;;;;;5041833;28;20189;-80
2023/02/15 09:09:00;;;;;;;39.50;28.07;;;8.30;1.00;;;;;;5058761;28;20202;-82
2023/02/15 09:11:35;;;;;;;42.67;29.47;;;8.30;1.00;;;;;;5054194;28;20190;-82
2023/02/15 09:14:05;;;;;;;43.23;29.00;;;8.30;1.00;;;;;;5031200;28;20169;-88
2023/02/15 09:16:38;;;;;;;38.73;28.80;;;8.30;1.00;;;;;;5025140;28;20206;-83
2023/02/15 09:19:05;;;;;;;40.13;29.03;;;8.20;1.00;;;;;;5038882;28;20209;-82
2023/02/15 09:21:33;;;;;;;45.70;30.77;;;8.10;1.00;;;;;;5029667;28;20170;-90
2023/02/15 09:24:01;;;;;;;44.23;30.53;;;8.20;1.00;;;;;;5019417;28;20177;-89
2023/02/15 09:26:30;;;;;;;41.20;28.73;;;8.40;1.00;;;;;;5031471;28;20182;-85
2023/02/15 09:29:03;;;;;;;41.87;28.87;;;8.60;1.00;;;;;;5030817;28;20190;-90
2023/02/15 09:31:49;;;;;;;41.97;27.80;;;8.50;1.00;;;;;;5021861;28;20663;-89
2023/02/15 09:34:17;;;;;;;36.70;26.67;;;8.50;1.00;;;;;;5041358;28;20178;-86
2023/02/15 09:36:44;;;;;;;41.57;29.03;;;8.60;1.00;;;;;;5047386;28;20173;-83
2023/02/15 09:39:19;;;;;;;43.00;29.30;;;8.60;1.00;;;;;;5048361;28;20201;-84
2023/02/15 09:42:09;;;;;;;38.40;27.13;;;8.70;1.00;;;;;;5041145;28;20242;-85
2023/02/15 09:45:03;;;;;;;41.70;28.87;;;8.90;1.00;;;;;;5024404;28;20209;-81
2023/02/15 09:48:17;;;;;;;44.17;28.57;;;9.10;1.00;;;;;;5034017;28;20216;-88
2023/02/15 09:51:01;;;;;;;37.30;26.20;;;9.30;1.00;;;;;;5034021;28;20228;-84
2023/02/15 09:53:43;;;;;;;39.80;27.37;;;9.90;1.00;;;;;;5046895;28;20201;-85
2023/02/15 09:56:46;;;;;;;39.30;26.10;;;10.30;1.00;;;;;;5039457;28;20229;-85
2023/02/15 09:59:30;;;;;;;36.07;25.27;;;10.60;1.00;;;;;;5034323;28;20581;-84
2023/02/15 10:02:08;;;;;;;42.27;26.23;;;10.80;1.00;;;;;;5018734;28;20163;-82
2023/02/15 10:05:39;;;;;;;37.93;25.80;;;10.90;1.00;;;;;;5020564;28;20201;-81
2023/02/15 10:08:20;;;;;;;36.23;25.97;;;11.10;1.00;;;;;;5020140;28;20178;-84
2023/02/15 10:14:18;;;;;;;37.77;25.93;;;11.60;1.00;;;;;;5049151;28;20241;-92
2023/02/15 10:17:04;;;;;;;34.43;25.70;;;11.40;1.00;;;;;;5050691;28;20208;-86
2023/02/15 10:20:05;;;;;;;35.83;25.73;;;11.20;1.00;;;;;;5042986;28;20583;-91
2023/02/15 10:22:54;;;;;;;35.63;24.93;;;11.00;1.00;;;;;;5044918;28;20182;-87
2023/02/15 10:25:54;;;;;;;33.90;24.43;;;10.90;1.00;;;;;;5047774;28;20272;-85
2023/02/15 10:28:41;;;;;;;37.53;25.13;;;10.90;1.00;;;;;;5056795;28;20177;-81
2023/02/15 10:31:25;;;;;;;31.10;22.30;;;11.00;1.00;;;;;;5057504;28;20146;-81
2023/02/15 10:34:19;;;;;;;35.80;23.73;;;10.80;1.00;;;;;;5052593;28;20216;-90
2023/02/15 10:37:31;;;;;;;34.00;23.97;;;10.80;1.00;;;;;;5057029;28;20176;-79
2023/02/15 10:40:11;;;;;;;34.83;22.77;;;10.80;1.00;;;;;;5033498;28;20209;-83
2023/02/15 10:43:11;;;;;;;36.40;22.83;;;10.80;1.00;;;;;;5037953;28;20170;-81
2023/02/15 10:49:45;;;;;;;32.43;22.53;;;10.80;1.00;;;;;;5030313;28;20190;-90
2023/02/15 10:52:42;;;;;;;32.30;23.07;;;10.80;1.00;;;;;;5031478;28;20181;-92
2023/02/15 10:55:21;;;;;;;32.53;23.07;;;10.80;1.00;;;;;;5030714;28;20198;-85
2023/02/15 10:58:25;;;;;;;34.53;22.93;;;10.90;1.00;;;;;;5032392;28;20589;-88
2023/02/15 11:01:29;;;;;;;33.47;23.50;;;10.90;1.00;;;;;;5037189;28;20181;-82
2023/02/15 11:04:29;;;;;;;33.67;23.13;;;11.00;1.00;;;;;;5035256;28;20258;-94
2023/02/15 11:07:23;;;;;;;33.77;22.97;;;10.90;1.00;;;;;;5033873;28;20209;-96
2023/02/15 11:10:01;;;;;;;34.40;22.37;;;11.00;1.00;;;;;;5030266;28;20698;-92
2023/02/15 11:12:41;;;;;;;32.10;22.63;;;11.10;1.00;;;;;;5036497;28;20190;-81
2023/02/15 11:15:32;;;;;;;35.33;22.73;;;11.20;1.00;;;;;;5036966;28;20164;-83
2023/02/15 11:18:21;;;;;;;34.00;23.07;;;11.30;1.00;;;;;;5036618;28;20190;-82
2023/02/15 11:21:17;;;;;;;33.27;22.20;;;11.50;1.00;;;;;;5033354;28;20190;-89
2023/02/15 11:23:49;;;;;;;30.60;21.90;;;11.70;1.00;;;;;;5032683;28;20155;-92
2023/02/15 11:26:21;;;;;;;31.63;22.70;;;11.70;1.00;;;;;;5036402;28;20243;-80
2023/02/15 11:29:34;;;;;;;30.30;23.30;;;11.80;1.00;;;;;;5037115;28;20200;-84
2023/02/15 11:32:11;;;;;;;31.67;23.43;;;11.90;1.00;;;;;;5035689;28;20170;-79
2023/02/15 11:35:00;;;;;;;31.17;23.43;;;11.80;1.00;;;;;;5037389;28;20167;-82
2023/02/15 11:37:40;;;;;;;30.87;23.47;;;11.90;1.00;;;;;;5039222;28;20166;-83
2023/02/15 11:40:30;;;;;;;36.90;24.67;;;11.90;1.00;;;;;;5056784;28;20200;-79
2023/02/15 11:49:40;;;;;;;34.67;24.97;;;12.00;1.00;;;;;;5047797;28;20204;-93
2023/02/15 11:52:13;;;;;;;34.60;26.00;;;11.90;1.00;;;;;;5053848;28;20193;-94
2023/02/15 11:55:22;;;;;;;32.53;24.87;;;12.00;1.00;;;;;;5042184;28;20208;-85
2023/02/15 11:58:25;;;;;;;35.03;24.97;;;12.00;1.00;;;;;;5044922;28;20198;-94
2023/02/15 12:01:32;;;;;;;34.57;25.63;;;12.00;1.00;;;;;;5055339;28;20181;-80
2023/02/15 12:04:36;;;;;;;36.70;26.20;;;11.90;1.00;;;;;;5056213;28;20161;-93
2023/02/15 12:07:25;;;;;;;33.73;26.37;;;12.20;1.00;;;;;;5047350;28;20213;-94
2023/02/15 12:10:03;;;;;;;34.33;25.70;;;12.00;1.00;;;;;;5044401;28;20265;-90
2023/02/15 12:12:36;;;;;;;35.27;26.27;;;12.00;1.00;;;;;;5049611;28;20166;-95
2023/02/15 12:15:11;;;;;;;37.30;26.10;;;12.00;1.00;;;;;;5040714;28;20167;-94
2023/02/15 12:17:50;;;;;;;39.10;28.10;;;11.90;1.00;;;;;;5047047;28;20205;-87
2023/02/15 12:20:43;;;;;;;35.50;26.40;;;11.90;1.00;;;;;;5031998;28;20177;-88
2023/02/15 12:23:16;;;;;;;36.60;27.43;;;11.90;1.00;;;;;;5051195;28;20170;-92
2023/02/15 12:25:55;;;;;;;38.43;29.27;;;12.00;1.00;;;;;;5051785;28;20475;-93
2023/02/15 12:28:36;;;;;;;38.70;28.50;;;12.20;1.00;;;;;;5047524;28;20165;-81
2023/02/15 12:31:41;;;;;;;35.40;26.77;;;12.30;1.00;;;;;;5027434;28;20205;-85
2023/02/15 12:34:36;;;;;;;41.57;28.17;;;12.40;1.00;;;;;;5038019;28;20166;-81
2023/02/15 12:37:11;;;;;;;39.73;27.97;;;12.50;1.00;;;;;;5036502;28;20238;-89
2023/02/15 12:39:50;;;;;;;37.13;27.60;;;12.60;1.00;;;;;;5046089;28;20219;-88
2023/02/15 12:42:19;;;;;;;42.20;28.97;;;12.80;1.00;;;;;;5043613;28;20164;-89
2023/02/15 12:44:57;;;;;;;43.80;29.87;;;13.00;1.00;;;;;;5031016;28;20189;-91
2023/02/15 12:47:26;;;;;;;37.73;28.30;;;13.20;1.00;;;;;;5050148;28;20162;-81
2023/02/15 12:50:16;;;;;;;40.43;28.43;;;13.40;1.00;;;;;;5038554;28;20235;-82
2023/02/15 12:52:50;;;;;;;41.80;28.83;;;13.30;1.00;;;;;;5047922;28;20263;-86
2023/02/15 12:55:27;;;;;;;40.07;28.20;;;13.20;1.00;;;;;;5061045;28;20181;-86
2023/02/15 12:58:34;;;;;;;38.40;27.90;;;13.10;1.00;;;;;;5051549;28;20237;-84
2023/02/15 13:01:19;;;;;;;40.03;29.40;;;13.20;1.00;;;;;;5050906;28;20175;-82
2023/02/15 13:04:04;;;;;;;39.33;28.57;;;13.40;1.00;;;;;;5042244;28;20179;-81
2023/02/15 13:06:54;;;;;;;35.23;28.03;;;13.40;1.00;;;;;;5032089;28;20184;-82
2023/02/15 13:09:32;;;;;;;46.37;29.30;;;13.50;1.00;;;;;;5032498;28;20160;-85
2023/02/15 13:12:21;;;;;;;37.93;28.43;;;13.70;1.00;;;;;;5046096;28;20195;-81
2023/02/15 13:14:51;;;;;;;39.17;27.97;;;13.60;1.00;;;;;;5042611;28;20190;-83
2023/02/15 13:17:23;;;;;;;36.23;27.43;;;13.60;1.00;;;;;;5059793;28;20176;-83
2023/02/15 13:19:54;;;;;;;38.40;27.80;;;13.60;1.00;;;;;;5064287;28;20189;-91
2023/02/15 13:22:41;;;;;;;41.60;29.23;;;13.70;1.00;;;;;;5058934;28;20185;-84
2023/02/15 13:25:21;;;;;;;41.33;29.53;;;13.80;1.00;;;;;;5029226;28;20177;-91
2023/02/15 13:28:23;;;;;;;48.33;29.17;;;13.80;1.00;;;;;;5048555;28;20185;-88
2023/02/15 13:31:17;;;;;;;40.47;30.23;;;13.70;1.00;;;;;;5037651;28;20185;-80
2023/02/15 13:33:53;;;;;;;42.83;29.97;;;13.40;1.00;;;;;;5041028;28;20196;-80
2023/02/15 13:37:03;;;;;;;41.53;29.47;;;13.40;1.00;;;;;;5053884;28;20253;-80
2023/02/15 13:39:44;;;;;;;37.53;29.70;;;13.40;1.00;;;;;;5046461;28;20202;-82
2023/02/15 13:42:44;;;;;;;39.17;28.93;;;13.40;1.00;;;;;;5035494;28;20170;-80
2023/02/15 13:45:48;;;;;;;41.87;28.70;;;13.50;1.00;;;;;;5033037;28;20253;-80
2023/02/15 13:48:51;;;;;;;40.40;29.03;;;13.70;1.00;;;;;;5030839;28;20175;-90
2023/02/15 13:51:55;;;;;;;40.03;29.57;;;13.70;1.00;;;;;;5039194;28;20202;-80
2023/02/15 13:55:06;;;;;;;39.10;28.73;;;13.60;1.00;;;;;;5035100;28;20176;-81
2023/02/15 13:58:28;;;;;;;39.50;29.80;;;13.60;1.00;;;;;;5036210;28;20179;-80